createdAt,value
2017-09-26T00:00:23.146Z,22.28
2017-09-26T00:01:32.764Z,22.22
2017-09-26T00:02:41.707Z,22.25
2017-09-26T00:03:50.975Z,22.28
2017-09-26T00:05:00.244Z,22.3
2017-09-26T00:06:09.200Z,22.25
2017-09-26T00:07:18.162Z,22.28
2017-09-26T00:08:27.465Z,22.33
2017-09-26T00:09:37.062Z,22.28
2017-09-26T00:10:46.037Z,22.25
2017-09-26T00:11:54.701Z,22.3
2017-09-26T00:13:03.682Z,22.31
2017-09-26T00:14:12.655Z,22.31
2017-09-26T00:15:21.617Z,22.27
2017-09-26T00:16:30.884Z,22.24
2017-09-26T00:17:39.552Z,22.33
2017-09-26T00:18:48.204Z,22.21
2017-09-26T00:19:57.248Z,22.27
2017-09-26T00:21:05.912Z,22.27
2017-09-26T00:22:15.835Z,22.25
2017-09-26T00:23:24.799Z,22.22
2017-09-26T00:24:33.763Z,22.3
2017-09-26T00:25:42.416Z,22.3
2017-09-26T00:26:51.390Z,22.24
2017-09-26T00:28:00.670Z,22.3
2017-09-26T00:29:09.320Z,22.33
2017-09-26T00:30:18.614Z,22.27
2017-09-26T00:31:27.571Z,22.31
2017-09-26T00:32:36.931Z,22.24
2017-09-26T00:33:46.210Z,22.3
2017-09-26T00:34:55.495Z,22.33
2017-09-26T00:36:04.470Z,22.28
2017-09-26T00:37:13.452Z,22.25
2017-09-26T00:38:22.131Z,22.22
2017-09-26T00:39:31.421Z,22.24
2017-09-26T00:40:40.387Z,22.24
2017-09-26T00:41:49.040Z,22.3
2017-09-26T00:42:58.013Z,22.27
2017-09-26T00:44:06.981Z,22.35
2017-09-26T00:45:15.993Z,22.24
2017-09-26T00:46:25.617Z,22.33
2017-09-26T00:47:35.221Z,22.22
2017-09-26T00:48:43.877Z,22.24
2017-09-26T00:49:52.848Z,22.25
2017-09-26T00:51:02.182Z,22.3
2017-09-26T00:52:11.785Z,22.35
2017-09-26T00:53:21.077Z,22.22
2017-09-26T00:54:30.670Z,22.24
2017-09-26T00:55:39.959Z,22.24
2017-09-26T00:56:48.951Z,22.24
2017-09-26T00:57:58.224Z,22.3
2017-09-26T00:59:07.511Z,22.24
2017-09-26T01:00:16.156Z,22.3
2017-09-26T01:01:25.118Z,22.27
2017-09-26T01:02:33.779Z,22.28
2017-09-26T01:03:43.388Z,22.3
2017-09-26T01:04:52.039Z,22.25
2017-09-26T01:06:01.663Z,22.3
2017-09-26T01:07:10.944Z,22.31
2017-09-26T01:08:19.932Z,22.24
2017-09-26T01:09:29.203Z,22.31
2017-09-26T01:10:38.188Z,22.27
2017-09-26T01:11:47.478Z,22.3
2017-09-26T01:12:56.435Z,22.27
2017-09-26T01:14:05.391Z,22.24
2017-09-26T01:15:14.994Z,22.24
2017-09-26T01:16:24.599Z,22.25
2017-09-26T01:17:33.572Z,22.24
2017-09-26T01:18:42.543Z,22.25
2017-09-26T01:19:51.222Z,22.33
2017-09-26T01:21:00.831Z,22.3
2017-09-26T01:22:09.489Z,22.27
2017-09-26T01:23:18.457Z,22.28
2017-09-26T01:24:27.422Z,22.3
2017-09-26T01:25:36.759Z,22.28
2017-09-26T01:26:46.024Z,22.28
2017-09-26T01:27:54.990Z,22.28
2017-09-26T01:29:04.280Z,22.33
2017-09-26T01:30:13.257Z,22.3
2017-09-26T01:31:22.558Z,22.24
2017-09-26T01:32:31.546Z,22.24
2017-09-26T01:33:40.185Z,22.25
2017-09-26T01:34:50.101Z,22.3
2017-09-26T01:35:59.064Z,22.27
2017-09-26T01:37:08.034Z,22.28
2017-09-26T01:38:17.025Z,22.3
2017-09-26T01:39:25.680Z,22.24
2017-09-26T01:40:34.652Z,22.27
2017-09-26T01:41:43.307Z,22.24
2017-09-26T01:42:52.644Z,22.28
2017-09-26T01:44:01.614Z,22.28
2017-09-26T01:45:11.212Z,22.28
2017-09-26T01:46:21.119Z,22.28
2017-09-26T01:47:29.777Z,22.28
2017-09-26T01:48:38.440Z,22.35
2017-09-26T01:49:47.410Z,22.24
2017-09-26T01:50:56.712Z,22.21
2017-09-26T01:52:05.994Z,22.33
2017-09-26T01:53:14.967Z,22.3
2017-09-26T01:54:24.252Z,22.33
2017-09-26T01:55:33.215Z,22.3
2017-09-26T01:56:42.186Z,22.28
2017-09-26T01:57:51.486Z,22.3
2017-09-26T01:59:00.437Z,22.25
2017-09-26T02:00:09.410Z,22.3
2017-09-26T02:01:18.378Z,22.27
2017-09-26T02:02:27.973Z,22.24
2017-09-26T02:03:36.627Z,22.3
2017-09-26T02:04:45.595Z,22.31
2017-09-26T02:05:55.192Z,22.27
2017-09-26T02:07:04.156Z,22.22
2017-09-26T02:08:12.817Z,22.28
2017-09-26T02:09:21.462Z,22.24
2017-09-26T02:10:30.736Z,22.27
2017-09-26T02:11:39.704Z,22.24
2017-09-26T02:12:48.689Z,22.27
2017-09-26T02:13:57.658Z,22.24
2017-09-26T02:15:06.632Z,22.24
2017-09-26T02:16:15.624Z,22.27
2017-09-26T02:17:24.593Z,22.3
2017-09-26T02:18:34.226Z,22.28
2017-09-26T02:19:43.189Z,22.25
2017-09-26T02:20:52.167Z,22.21
2017-09-26T02:22:01.462Z,22.27
2017-09-26T02:23:10.419Z,22.3
2017-09-26T02:24:19.772Z,22.24
2017-09-26T02:25:28.442Z,22.28
2017-09-26T02:26:37.125Z,22.22
2017-09-26T02:27:45.783Z,22.22
2017-09-26T02:28:54.750Z,22.25
2017-09-26T02:30:03.718Z,22.21
2017-09-26T02:31:13.343Z,22.3
2017-09-26T02:32:22.308Z,22.24
2017-09-26T02:33:31.273Z,22.25
2017-09-26T02:34:40.250Z,22.24
2017-09-26T02:35:49.226Z,22.28
2017-09-26T02:36:57.896Z,22.21
2017-09-26T02:38:06.544Z,22.27
2017-09-26T02:39:15.520Z,22.21
2017-09-26T02:40:24.479Z,22.27
2017-09-26T02:41:33.452Z,22.31
2017-09-26T02:42:43.064Z,22.28
2017-09-26T02:43:52.356Z,22.3
2017-09-26T02:45:01.643Z,22.27
2017-09-26T02:46:11.549Z,22.21
2017-09-26T02:47:20.202Z,22.22
2017-09-26T02:48:29.176Z,22.3
2017-09-26T02:49:38.144Z,22.27
2017-09-26T02:50:47.120Z,22.22
2017-09-26T02:51:55.774Z,22.3
2017-09-26T02:53:05.062Z,22.3
2017-09-26T02:54:14.347Z,22.33
2017-09-26T02:55:23.318Z,22.24
2017-09-26T02:56:32.935Z,22.2
2017-09-26T02:57:42.547Z,22.33
2017-09-26T02:58:51.837Z,22.25
2017-09-26T03:00:00.502Z,22.27
2017-09-26T03:01:09.810Z,22.27
2017-09-26T03:02:19.403Z,22.27
2017-09-26T03:03:28.369Z,22.2
2017-09-26T03:04:37.343Z,22.27
2017-09-26T03:05:45.995Z,22.2
2017-09-26T03:06:54.956Z,22.31
2017-09-26T03:08:04.302Z,22.22
2017-09-26T03:09:13.317Z,22.22
2017-09-26T03:10:22.294Z,22.27
2017-09-26T03:11:31.255Z,22.24
2017-09-26T03:12:40.546Z,22.31
2017-09-26T03:13:49.826Z,22.21
2017-09-26T03:14:58.844Z,22.27
2017-09-26T03:16:07.824Z,22.25
2017-09-26T03:17:16.798Z,22.22
2017-09-26T03:18:26.073Z,22.25
2017-09-26T03:19:35.726Z,22.3
2017-09-26T03:20:44.714Z,22.3
2017-09-26T03:21:54.308Z,22.28
2017-09-26T03:23:03.263Z,22.28
2017-09-26T03:24:11.921Z,22.28
2017-09-26T03:25:20.890Z,22.2
2017-09-26T03:26:29.863Z,22.27
2017-09-26T03:27:38.831Z,22.24
2017-09-26T03:28:48.414Z,22.25
2017-09-26T03:29:57.473Z,22.25
2017-09-26T03:31:06.766Z,22.27
2017-09-26T03:32:16.358Z,22.24
2017-09-26T03:33:25.653Z,22.31
2017-09-26T03:34:34.927Z,22.33
2017-09-26T03:35:43.592Z,22.27
2017-09-26T03:36:52.564Z,22.25
2017-09-26T03:38:01.675Z,22.31
2017-09-26T03:39:10.314Z,22.3
2017-09-26T03:40:18.972Z,22.22
2017-09-26T03:41:28.607Z,22.24
2017-09-26T03:42:37.288Z,22.28
2017-09-26T03:43:46.926Z,22.24
2017-09-26T03:44:55.887Z,22.27
2017-09-26T03:46:04.862Z,22.22
2017-09-26T03:47:13.830Z,22.22
2017-09-26T03:48:22.486Z,22.28
2017-09-26T03:49:31.769Z,22.25
2017-09-26T03:50:41.364Z,22.28
2017-09-26T03:51:50.667Z,22.28
2017-09-26T03:52:59.964Z,22.28
2017-09-26T03:54:09.256Z,22.21
2017-09-26T03:55:17.986Z,22.25
2017-09-26T03:56:27.612Z,22.21
2017-09-26T03:57:36.584Z,22.27
2017-09-26T03:58:45.237Z,22.28
2017-09-26T03:59:54.210Z,22.27
2017-09-26T04:01:03.808Z,22.22
2017-09-26T04:02:12.466Z,22.28
2017-09-26T04:03:21.128Z,22.3
2017-09-26T04:04:29.798Z,22.24
2017-09-26T04:05:39.085Z,22.3
2017-09-26T04:06:48.370Z,22.22
2017-09-26T04:07:57.679Z,22.3
2017-09-26T04:09:07.265Z,22.24
2017-09-26T04:10:16.261Z,22.3
2017-09-26T04:11:25.856Z,22.3
2017-09-26T04:12:34.859Z,22.33
2017-09-26T04:13:43.515Z,22.33
2017-09-26T04:14:52.786Z,22.31
2017-09-26T04:16:02.064Z,22.33
2017-09-26T04:17:11.042Z,22.3
2017-09-26T04:18:20.014Z,22.22
2017-09-26T04:19:29.327Z,22.18
2017-09-26T04:20:38.292Z,22.28
2017-09-26T04:21:47.570Z,22.3
2017-09-26T04:22:56.864Z,22.27
2017-09-26T04:24:05.833Z,22.28
2017-09-26T04:25:14.831Z,22.28
2017-09-26T04:26:23.782Z,22.27
2017-09-26T04:27:32.451Z,22.22
2017-09-26T04:28:41.419Z,22.24
2017-09-26T04:29:50.421Z,22.24
2017-09-26T04:30:59.397Z,22.27
2017-09-26T04:32:08.681Z,22.3
2017-09-26T04:33:17.344Z,22.28
2017-09-26T04:34:26.305Z,22.28
2017-09-26T04:35:35.586Z,22.28
2017-09-26T04:36:44.554Z,22.22
2017-09-26T04:37:53.516Z,22.25
2017-09-26T04:39:02.859Z,22.25
2017-09-26T04:40:12.162Z,22.31
2017-09-26T04:41:21.253Z,22.18
2017-09-26T04:42:30.241Z,22.28
2017-09-26T04:43:39.543Z,22.27
2017-09-26T04:44:49.189Z,22.24
2017-09-26T04:45:58.494Z,22.3
2017-09-26T04:47:07.494Z,22.28
2017-09-26T04:48:17.111Z,22.27
2017-09-26T04:49:25.793Z,22.25
2017-09-26T04:50:35.120Z,22.28
2017-09-26T04:51:44.092Z,22.24
2017-09-26T04:52:53.409Z,22.27
2017-09-26T04:54:02.376Z,22.21
2017-09-26T04:55:11.365Z,22.25
2017-09-26T04:56:20.393Z,22.24
2017-09-26T04:57:29.398Z,22.3
2017-09-26T04:58:38.696Z,22.27
2017-09-26T04:59:47.997Z,22.28
2017-09-26T05:00:57.025Z,22.21
2017-09-26T05:02:06.058Z,22.27
2017-09-26T05:03:15.030Z,22.21
2017-09-26T05:04:24.116Z,22.31
2017-09-26T05:05:33.156Z,22.22
2017-09-26T05:06:42.201Z,22.22
2017-09-26T05:07:50.880Z,22.21
2017-09-26T05:09:00.177Z,22.3
2017-09-26T05:10:09.472Z,22.27
2017-09-26T05:11:18.801Z,22.24
2017-09-26T05:12:28.451Z,22.25
2017-09-26T05:13:37.788Z,22.21
2017-09-26T05:14:46.467Z,22.27
2017-09-26T05:15:56.190Z,22.35
2017-09-26T05:17:05.160Z,22.31
2017-09-26T05:18:14.133Z,22.28
2017-09-26T05:19:22.788Z,22.3
2017-09-26T05:20:31.501Z,22.27
2017-09-26T05:21:40.212Z,22.28
2017-09-26T05:22:49.045Z,22.31
2017-09-26T05:23:59.019Z,22.31
2017-09-26T05:25:07.986Z,22.35
2017-09-26T05:26:17.350Z,22.35
2017-09-26T05:27:26.014Z,22.4
2017-09-26T05:28:35.333Z,22.33
2017-09-26T05:29:44.609Z,22.51
2017-09-26T05:30:54.213Z,22.4
2017-09-26T05:32:03.215Z,22.43
2017-09-26T05:33:12.824Z,22.43
2017-09-26T05:34:22.124Z,22.42
2017-09-26T05:35:30.778Z,22.57
2017-09-26T05:36:39.774Z,22.54
2017-09-26T05:37:49.387Z,22.58
2017-09-26T05:38:58.676Z,22.55
2017-09-26T05:40:07.660Z,22.54
2017-09-26T05:41:16.723Z,22.55
2017-09-26T05:42:25.698Z,22.55
2017-09-26T05:43:34.665Z,22.67
2017-09-26T05:44:43.949Z,22.61
2017-09-26T05:45:52.973Z,22.7
2017-09-26T05:47:01.940Z,22.61
2017-09-26T05:48:11.216Z,22.57
2017-09-26T05:49:20.180Z,22.61
2017-09-26T05:50:29.259Z,22.68
2017-09-26T05:51:38.239Z,22.7
2017-09-26T05:52:46.939Z,22.67
2017-09-26T05:53:55.588Z,22.67
2017-09-26T05:55:04.299Z,22.68
2017-09-26T05:56:13.585Z,22.75
2017-09-26T05:57:22.233Z,22.68
2017-09-26T05:58:31.201Z,22.7
2017-09-26T05:59:39.881Z,22.75
2017-09-26T06:00:49.490Z,22.75
2017-09-26T06:01:58.458Z,22.72
2017-09-26T06:03:07.452Z,22.73
2017-09-26T06:04:16.754Z,22.68
2017-09-26T06:05:26.716Z,22.77
2017-09-26T06:06:35.745Z,22.73
2017-09-26T06:07:45.000Z,22.73
2017-09-26T06:08:54.297Z,22.58
2017-09-26T06:10:03.916Z,22.6
2017-09-26T06:11:12.904Z,22.6
2017-09-26T06:12:22.226Z,22.6
2017-09-26T06:13:31.639Z,22.65
2017-09-26T06:14:40.636Z,22.67
2017-09-26T06:15:49.708Z,22.65
2017-09-26T06:16:59.036Z,22.57
2017-09-26T06:18:08.064Z,22.57
2017-09-26T06:19:17.078Z,22.67
2017-09-26T06:20:26.359Z,22.68
2017-09-26T06:21:35.041Z,22.61
2017-09-26T06:22:43.751Z,22.72
2017-09-26T06:23:53.076Z,22.64
2017-09-26T06:25:01.744Z,22.72
2017-09-26T06:26:10.719Z,22.72
2017-09-26T06:27:19.465Z,22.7
2017-09-26T06:28:28.762Z,22.7
2017-09-26T06:29:37.768Z,22.73
2017-09-26T06:30:47.123Z,22.72
2017-09-26T06:31:56.103Z,22.75
2017-09-26T06:33:05.096Z,22.72
2017-09-26T06:34:13.758Z,22.72
2017-09-26T06:35:23.059Z,22.62
2017-09-26T06:36:32.356Z,22.67
2017-09-26T06:37:41.996Z,22.72
2017-09-26T06:38:50.700Z,22.77
2017-09-26T06:39:59.667Z,22.75
2017-09-26T06:41:09.292Z,22.7
2017-09-26T06:42:18.894Z,22.76
2017-09-26T06:43:27.878Z,22.73
2017-09-26T06:44:37.210Z,22.82
2017-09-26T06:45:45.908Z,22.82
2017-09-26T06:46:55.538Z,22.76
2017-09-26T06:48:04.828Z,22.79
2017-09-26T06:49:14.445Z,22.8
2017-09-26T06:50:24.087Z,22.77
2017-09-26T06:51:32.748Z,22.86
2017-09-26T06:52:42.824Z,22.77
2017-09-26T06:53:51.807Z,22.77
2017-09-26T06:55:01.417Z,22.86
2017-09-26T06:56:10.100Z,22.79
2017-09-26T06:57:19.474Z,22.86
2017-09-26T06:58:28.469Z,22.83
2017-09-26T06:59:37.161Z,22.82
2017-09-26T07:00:46.461Z,22.79
2017-09-26T07:01:55.646Z,22.88
2017-09-26T07:03:04.830Z,22.82
2017-09-26T07:04:13.814Z,22.91
2017-09-26T07:05:23.108Z,22.86
2017-09-26T07:06:32.462Z,22.9
2017-09-26T07:07:41.543Z,22.86
2017-09-26T07:08:50.531Z,22.95
2017-09-26T07:09:59.826Z,22.86
2017-09-26T07:11:08.496Z,22.92
2017-09-26T07:12:17.479Z,22.92
2017-09-26T07:13:26.772Z,22.97
2017-09-26T07:14:35.754Z,22.91
2017-09-26T07:15:44.807Z,22.94
2017-09-26T07:16:54.999Z,22.92
2017-09-26T07:18:04.468Z,22.98
2017-09-26T07:19:13.938Z,22.97
2017-09-26T07:20:22.750Z,22.9
2017-09-26T07:21:32.406Z,22.95
2017-09-26T07:22:44.159Z,23
2017-09-26T07:23:53.593Z,23.02
2017-09-26T07:25:02.837Z,22.95
2017-09-26T07:26:12.410Z,23.02
2017-09-26T07:27:22.189Z,23.05
2017-09-26T07:28:31.306Z,23
2017-09-26T07:29:40.933Z,23.05
2017-09-26T07:30:50.566Z,23.04
2017-09-26T07:32:00.143Z,22.95
2017-09-26T07:33:09.208Z,23.04
2017-09-26T07:34:18.415Z,23.04
2017-09-26T07:35:27.872Z,23.12
2017-09-26T07:36:37.477Z,23.07
2017-09-26T07:37:47.021Z,23.07
2017-09-26T07:38:55.786Z,23.13
2017-09-26T07:40:06.156Z,23.16
2017-09-26T07:41:18.014Z,23.04
2017-09-26T07:42:27.574Z,23.15
2017-09-26T07:43:37.739Z,23.17
2017-09-26T07:44:47.578Z,23.09
2017-09-26T07:45:57.132Z,23.17
2017-09-26T07:47:06.559Z,23.17
2017-09-26T07:48:15.303Z,23.17
2017-09-26T07:49:24.640Z,23.2
2017-09-26T07:50:34.292Z,23.17
2017-09-26T07:52:51.668Z,23.2
2017-09-26T07:54:01.001Z,23.16
2017-09-26T07:55:09.991Z,23.25
2017-09-26T07:56:19.631Z,23.27
2017-09-26T07:57:28.925Z,23.22
2017-09-26T07:58:37.593Z,23.22
2017-09-26T07:59:46.891Z,23.23
2017-09-26T08:00:55.879Z,23.25
2017-09-26T08:02:04.856Z,23.2
2017-09-26T08:03:13.531Z,23.22
2017-09-26T08:04:22.242Z,23.19
2017-09-26T08:05:31.215Z,23.27
2017-09-26T08:06:40.206Z,23.25
2017-09-26T08:07:49.181Z,23.19
2017-09-26T08:08:58.161Z,23.22
2017-09-26T08:10:07.147Z,23.23
2017-09-26T08:11:15.906Z,23.2
2017-09-26T08:12:24.887Z,23.2
2017-09-26T08:13:34.210Z,23.17
2017-09-26T08:14:44.461Z,23.27
2017-09-26T08:15:53.448Z,23.2
2017-09-26T08:17:02.466Z,23.31
2017-09-26T08:18:11.463Z,23.2
2017-09-26T08:19:20.153Z,23.27
2017-09-26T08:20:29.115Z,23.25
2017-09-26T08:21:37.782Z,23.25
2017-09-26T08:22:46.870Z,23.23
2017-09-26T08:23:55.856Z,23.23
2017-09-26T08:25:05.185Z,23.17
2017-09-26T08:26:14.473Z,23.23
2017-09-26T08:27:23.445Z,23.31
2017-09-26T08:28:32.528Z,23.31
2017-09-26T08:29:41.202Z,23.31
2017-09-26T08:30:50.815Z,23.32
2017-09-26T08:31:59.802Z,23.32
2017-09-26T08:33:08.784Z,23.33
2017-09-26T08:34:18.173Z,23.25
2017-09-26T08:35:27.597Z,23.27
2017-09-26T08:36:37.001Z,23.27
2017-09-26T08:37:45.981Z,23.38
2017-09-26T08:38:54.957Z,23.39
2017-09-26T08:40:04.590Z,23.38
2017-09-26T08:41:13.569Z,23.38
2017-09-26T08:42:22.583Z,23.39
2017-09-26T08:43:32.210Z,23.35
2017-09-26T08:44:41.257Z,23.39
2017-09-26T08:45:50.257Z,23.39
2017-09-26T08:46:59.572Z,23.42
2017-09-26T08:48:08.556Z,23.4
2017-09-26T08:49:17.608Z,23.47
2017-09-26T08:50:27.921Z,23.48
2017-09-26T08:51:37.590Z,23.47
2017-09-26T08:52:46.895Z,23.53
2017-09-26T08:53:55.882Z,23.53
2017-09-26T08:55:04.570Z,23.55
2017-09-26T08:56:13.878Z,23.55
2017-09-26T08:57:23.192Z,23.57
2017-09-26T08:58:31.893Z,23.66
2017-09-26T08:59:41.523Z,23.61
2017-09-26T09:00:51.475Z,23.66
2017-09-26T09:02:00.171Z,23.65
2017-09-26T09:03:09.511Z,23.63
2017-09-26T09:04:18.497Z,23.65
2017-09-26T09:05:27.814Z,23.57
2017-09-26T09:06:37.123Z,23.68
2017-09-26T09:07:46.112Z,23.6
2017-09-26T09:08:55.203Z,23.66
2017-09-26T09:10:03.914Z,23.7
2017-09-26T09:11:12.589Z,23.58
2017-09-26T09:12:22.230Z,23.57
2017-09-26T09:13:31.227Z,23.51
2017-09-26T09:14:40.222Z,23.6
2017-09-26T09:15:49.215Z,23.63
2017-09-26T09:16:57.876Z,23.57
2017-09-26T09:18:07.511Z,23.48
2017-09-26T09:19:16.613Z,23.55
2017-09-26T09:20:25.957Z,23.47
2017-09-26T09:21:34.996Z,23.54
2017-09-26T09:22:43.993Z,23.53
2017-09-26T09:23:53.307Z,23.51
2017-09-26T09:25:02.613Z,23.48
2017-09-26T09:26:11.600Z,23.42
2017-09-26T09:27:20.933Z,23.47
2017-09-26T09:28:29.994Z,23.47
2017-09-26T09:29:39.689Z,23.46
2017-09-26T09:30:48.673Z,23.38
2017-09-26T09:31:57.766Z,23.38
2017-09-26T09:33:07.123Z,23.39
2017-09-26T09:34:16.726Z,23.35
2017-09-26T09:35:25.718Z,23.39
2017-09-26T09:36:34.728Z,23.32
2017-09-26T09:37:44.055Z,23.32
2017-09-26T09:38:53.039Z,23.35
2017-09-26T09:40:02.371Z,23.36
2017-09-26T09:41:11.024Z,23.38
2017-09-26T09:42:20.010Z,23.4
2017-09-26T09:43:29.689Z,23.36
2017-09-26T09:44:39.297Z,23.39
2017-09-26T09:45:47.971Z,23.35
2017-09-26T09:46:57.257Z,23.42
2017-09-26T09:48:06.554Z,23.38
2017-09-26T09:49:15.595Z,23.28
2017-09-26T09:50:24.268Z,23.28
2017-09-26T09:51:33.276Z,23.38
2017-09-26T09:52:42.632Z,23.38
2017-09-26T09:53:51.610Z,23.2
2017-09-26T09:55:00.924Z,23.31
2017-09-26T09:56:09.947Z,23.28
2017-09-26T09:57:18.602Z,23.36
2017-09-26T09:58:27.616Z,23.23
2017-09-26T09:59:36.624Z,23.28
2017-09-26T10:00:45.614Z,23.32
2017-09-26T10:01:54.595Z,23.33
2017-09-26T10:03:03.666Z,23.31
2017-09-26T10:04:12.707Z,23.25
2017-09-26T10:05:22.397Z,23.32
2017-09-26T10:06:31.377Z,23.27
2017-09-26T10:07:40.684Z,23.25
2017-09-26T10:08:49.681Z,23.2
2017-09-26T10:09:59.299Z,23.28
2017-09-26T10:11:08.867Z,23.25
2017-09-26T10:12:18.169Z,23.31
2017-09-26T10:13:27.466Z,23.27
2017-09-26T10:14:36.803Z,23.27
2017-09-26T10:15:45.812Z,23.31
2017-09-26T10:16:54.810Z,23.35
2017-09-26T10:18:03.869Z,23.28
2017-09-26T10:19:13.167Z,23.27
2017-09-26T10:20:22.856Z,23.39
2017-09-26T10:21:31.539Z,23.31
2017-09-26T10:22:40.508Z,23.39
2017-09-26T10:23:49.823Z,23.32
2017-09-26T10:24:59.110Z,23.27
2017-09-26T10:26:08.400Z,23.27
2017-09-26T10:27:17.090Z,23.33
2017-09-26T10:28:26.731Z,23.28
2017-09-26T10:29:36.370Z,23.27
2017-09-26T10:30:45.657Z,23.32
2017-09-26T10:31:54.636Z,23.27
2017-09-26T10:33:03.924Z,23.31
2017-09-26T10:34:12.908Z,23.28
2017-09-26T10:35:21.907Z,23.32
2017-09-26T10:36:31.216Z,23.27
2017-09-26T10:37:40.225Z,23.25
2017-09-26T10:38:48.913Z,23.31
2017-09-26T10:39:58.545Z,23.23
2017-09-26T10:41:07.556Z,23.23
2017-09-26T10:42:16.528Z,23.25
2017-09-26T10:43:26.135Z,23.25
2017-09-26T10:44:35.746Z,23.28
2017-09-26T10:45:44.727Z,23.27
2017-09-26T10:46:53.710Z,23.27
2017-09-26T10:48:02.393Z,23.23
2017-09-26T10:49:11.050Z,23.22
2017-09-26T10:50:20.342Z,23.27
2017-09-26T10:51:29.306Z,23.2
2017-09-26T10:52:38.588Z,23.22
2017-09-26T10:53:47.270Z,23.25
2017-09-26T10:54:56.267Z,23.23
2017-09-26T10:56:05.622Z,23.22
2017-09-26T10:57:14.628Z,23.28
2017-09-26T10:58:23.614Z,23.27
2017-09-26T10:59:32.943Z,23.31
2017-09-26T11:00:41.619Z,23.23
2017-09-26T11:01:50.968Z,23.27
2017-09-26T11:02:59.995Z,23.28
2017-09-26T11:04:08.674Z,23.27
2017-09-26T11:05:17.685Z,23.25
2017-09-26T11:06:26.663Z,23.23
2017-09-26T11:07:35.643Z,23.25
2017-09-26T11:08:44.326Z,23.23
2017-09-26T11:09:53.019Z,23.23
2017-09-26T11:11:01.691Z,23.31
2017-09-26T11:12:11.010Z,23.31
2017-09-26T11:13:20.638Z,23.27
2017-09-26T11:14:29.295Z,23.22
2017-09-26T11:15:38.002Z,23.31
2017-09-26T11:16:47.619Z,23.27
2017-09-26T11:17:57.252Z,23.22
2017-09-26T11:19:06.573Z,23.31
2017-09-26T11:20:15.246Z,23.31
2017-09-26T11:21:24.872Z,23.22
2017-09-26T11:22:33.543Z,23.23
2017-09-26T11:23:42.843Z,23.27
2017-09-26T11:24:51.825Z,23.23
2017-09-26T11:26:00.791Z,23.27
2017-09-26T11:27:10.419Z,23.27
2017-09-26T11:28:19.087Z,23.22
2017-09-26T11:29:28.395Z,23.32
2017-09-26T11:30:37.687Z,23.25
2017-09-26T11:31:46.349Z,23.27
2017-09-26T11:32:55.332Z,23.28
2017-09-26T11:34:05.000Z,23.25
2017-09-26T11:35:13.961Z,23.27
2017-09-26T11:36:23.262Z,23.31
2017-09-26T11:37:32.269Z,23.31
2017-09-26T11:38:41.579Z,23.28
2017-09-26T11:39:50.579Z,23.35
2017-09-26T11:40:59.560Z,23.36
2017-09-26T11:42:09.188Z,23.27
2017-09-26T11:43:18.496Z,23.33
2017-09-26T11:44:27.517Z,23.33
2017-09-26T11:45:37.170Z,23.43
2017-09-26T11:46:45.832Z,23.38
2017-09-26T11:47:55.180Z,23.38
2017-09-26T11:49:04.805Z,23.39
2017-09-26T11:50:14.412Z,23.35
2017-09-26T11:51:23.394Z,23.38
2017-09-26T11:52:32.099Z,23.35
2017-09-26T11:53:41.157Z,23.32
2017-09-26T11:54:50.469Z,23.35
2017-09-26T11:56:00.068Z,23.38
2017-09-26T11:57:09.044Z,23.36
2017-09-26T11:58:18.033Z,23.36
2017-09-26T11:59:27.335Z,23.38
2017-09-26T12:00:36.660Z,23.36
2017-09-26T12:01:45.959Z,23.38
2017-09-26T12:02:54.953Z,23.38
2017-09-26T12:04:04.249Z,23.4
2017-09-26T12:05:12.918Z,23.32
2017-09-26T12:06:21.904Z,23.36
2017-09-26T12:07:30.567Z,23.36
2017-09-26T12:08:39.914Z,23.38
2017-09-26T12:09:49.531Z,23.39
2017-09-26T12:10:58.522Z,23.43
2017-09-26T12:12:07.175Z,23.39
2017-09-26T12:13:15.838Z,23.36
2017-09-26T12:14:24.499Z,23.39
2017-09-26T12:15:33.503Z,23.38
2017-09-26T12:16:42.497Z,23.36
2017-09-26T12:17:51.502Z,23.39
2017-09-26T12:19:00.486Z,23.43
2017-09-26T12:20:09.463Z,23.35
2017-09-26T12:21:18.761Z,23.33
2017-09-26T12:22:28.056Z,23.36
2017-09-26T12:23:37.672Z,23.43
2017-09-26T12:24:46.663Z,23.4
2017-09-26T12:25:55.643Z,23.33
2017-09-26T12:27:04.617Z,23.43
2017-09-26T12:28:13.902Z,23.4
2017-09-26T12:29:22.866Z,23.35
2017-09-26T12:30:31.527Z,23.4
2017-09-26T12:31:40.197Z,23.39
2017-09-26T12:32:48.862Z,23.42
2017-09-26T12:33:58.153Z,23.42
2017-09-26T12:35:06.813Z,23.46
2017-09-26T12:36:15.496Z,23.47
2017-09-26T12:37:24.483Z,23.43
2017-09-26T12:38:33.453Z,23.43
2017-09-26T12:39:42.740Z,23.46
2017-09-26T12:40:52.042Z,23.48
2017-09-26T12:42:01.012Z,23.4
2017-09-26T12:43:10.363Z,23.43
2017-09-26T12:44:19.360Z,23.46
2017-09-26T12:45:28.342Z,23.48
2017-09-26T12:46:37.033Z,23.47
2017-09-26T12:47:46.311Z,23.5
2017-09-26T12:48:55.314Z,23.51
2017-09-26T12:50:05.247Z,23.55
2017-09-26T12:51:13.911Z,23.48
2017-09-26T12:52:23.206Z,23.53
2017-09-26T12:53:32.521Z,23.5
2017-09-26T12:54:41.497Z,23.57
2017-09-26T12:55:51.432Z,23.54
2017-09-26T12:57:00.418Z,23.57
2017-09-26T12:58:09.728Z,23.51
2017-09-26T12:59:19.343Z,23.51
2017-09-26T13:00:28.624Z,23.58
2017-09-26T13:01:37.911Z,23.57
2017-09-26T13:02:46.569Z,23.6
2017-09-26T13:03:55.220Z,23.51
2017-09-26T13:05:03.888Z,23.51
2017-09-26T13:06:12.872Z,23.58
2017-09-26T13:07:21.537Z,23.6
2017-09-26T13:08:30.211Z,23.53
2017-09-26T13:09:38.870Z,23.51
2017-09-26T13:10:47.556Z,23.54
2017-09-26T13:11:56.222Z,23.6
2017-09-26T13:13:05.214Z,23.51
2017-09-26T13:14:14.500Z,23.58
2017-09-26T13:15:23.786Z,23.57
2017-09-26T13:16:33.581Z,23.6
2017-09-26T13:17:42.245Z,23.61
2017-09-26T13:18:50.915Z,23.57
2017-09-26T13:19:59.913Z,23.58
2017-09-26T13:21:08.903Z,23.63
2017-09-26T13:22:17.923Z,23.6
2017-09-26T13:23:27.233Z,23.65
2017-09-26T13:24:35.905Z,23.58
2017-09-26T13:25:44.644Z,23.61
2017-09-26T13:26:53.928Z,23.65
2017-09-26T13:28:03.229Z,23.54
2017-09-26T13:29:12.551Z,23.63
2017-09-26T13:30:21.629Z,23.69
2017-09-26T13:31:31.035Z,23.63
2017-09-26T13:32:39.727Z,23.65
2017-09-26T13:33:48.703Z,23.69
2017-09-26T13:34:57.696Z,23.76
2017-09-26T13:36:06.714Z,23.72
2017-09-26T13:37:16.004Z,23.7
2017-09-26T13:38:25.942Z,23.7
2017-09-26T13:39:35.264Z,23.68
2017-09-26T13:40:44.550Z,23.75
2017-09-26T13:41:53.523Z,23.73
2017-09-26T13:43:02.532Z,23.79
2017-09-26T13:44:11.507Z,23.76
2017-09-26T13:45:20.527Z,23.73
2017-09-26T13:46:29.794Z,23.69
2017-09-26T13:47:38.539Z,23.72
2017-09-26T13:48:47.200Z,23.7
2017-09-26T13:49:56.185Z,23.7
2017-09-26T13:51:05.252Z,23.79
2017-09-26T13:52:13.949Z,23.75
2017-09-26T13:53:23.277Z,23.76
2017-09-26T13:54:31.932Z,23.73
2017-09-26T13:55:41.261Z,23.78
2017-09-26T13:56:50.583Z,23.68
2017-09-26T13:57:59.316Z,23.72
2017-09-26T13:59:08.974Z,23.7
2017-09-26T14:00:17.967Z,23.63
2017-09-26T14:01:27.293Z,23.66
2017-09-26T14:02:36.313Z,23.63
2017-09-26T14:03:44.958Z,23.65
2017-09-26T14:04:53.969Z,23.61
2017-09-26T14:06:02.664Z,23.72
2017-09-26T14:07:11.738Z,23.63
2017-09-26T14:08:20.725Z,23.68
2017-09-26T14:09:30.050Z,23.63
2017-09-26T14:10:39.669Z,23.66
2017-09-26T14:11:48.638Z,23.61
2017-09-26T14:12:57.958Z,23.63
2017-09-26T14:14:07.489Z,23.6
2017-09-26T14:15:16.501Z,23.65
2017-09-26T14:16:25.220Z,23.63
2017-09-26T14:17:34.528Z,23.68
2017-09-26T14:18:43.579Z,23.55
2017-09-26T14:19:52.556Z,23.68
2017-09-26T14:21:01.560Z,23.69
2017-09-26T14:22:10.228Z,23.58
2017-09-26T14:23:19.299Z,23.63
2017-09-26T14:24:28.794Z,23.69
2017-09-26T14:25:38.789Z,23.61
2017-09-26T14:26:48.106Z,23.6
2017-09-26T14:27:57.573Z,23.68
2017-09-26T14:29:06.261Z,23.55
2017-09-26T14:30:15.278Z,23.61
2017-09-26T14:31:24.566Z,23.63
2017-09-26T14:32:33.232Z,23.58
2017-09-26T14:33:42.390Z,23.61
2017-09-26T14:34:51.368Z,23.66
2017-09-26T14:36:00.385Z,23.61
2017-09-26T14:37:09.391Z,23.61
2017-09-26T14:38:18.392Z,23.61
2017-09-26T14:39:27.398Z,23.61
2017-09-26T14:40:36.450Z,23.63
2017-09-26T14:41:45.803Z,23.57
2017-09-26T14:42:54.591Z,23.61
2017-09-26T14:44:03.274Z,23.58
2017-09-26T14:45:12.909Z,23.58
2017-09-26T14:46:21.954Z,23.58
2017-09-26T14:47:31.257Z,23.5
2017-09-26T14:48:40.284Z,23.5
2017-09-26T14:49:48.944Z,23.57
2017-09-26T14:50:58.254Z,23.54
2017-09-26T14:52:07.552Z,23.57
2017-09-26T14:53:17.511Z,23.51
2017-09-26T14:54:26.522Z,23.51
2017-09-26T14:55:35.511Z,23.51